sensor_id;sensor_type;location;lat;lon;timestamp;P1;durP1;ratioP1;P2;durP2;ratioP2
38725;SDS011;24474;48.906;8.808;2023-02-11T00:00:11;15.75;;;10.07;;
38725;SDS011;24474;48.906;8.808;2023-02-11T00:02:37;17.42;;;11.43;;
38725;SDS011;24474;48.906;8.808;2023-02-11T00:05:03;18.90;;;11.13;;
38725;SDS011;24474;48.906;8.808;2023-02-11T00:07:32;16.70;;;11.18;;
38725;SDS011;24474;48.906;8.808;2023-02-11T00:09:59;14.85;;;10.27;;
38725;SDS011;24474;48.906;8.808;2023-02-11T00:12:27;15.63;;;10.13;;
38725;SDS011;24474;48.906;8.808;2023-02-11T00:14:53;15.32;;;9.82;;
38725;SDS011;24474;48.906;8.808;2023-02-11T00:17:18;14.30;;;9.70;;
38725;SDS011;24474;48.906;8.808;2023-02-11T00:19:47;14.88;;;9.02;;
38725;SDS011;24474;48.906;8.808;2023-02-11T00:22:14;12.85;;;8.73;;
38725;SDS011;24474;48.906;8.808;2023-02-11T00:24:39;14.05;;;9.75;;
38725;SDS011;24474;48.906;8.808;2023-02-11T00:27:05;14.02;;;9.27;;
38725;SDS011;24474;48.906;8.808;2023-02-11T00:29:30;14.90;;;8.70;;
38725;SDS011;24474;48.906;8.808;2023-02-11T00:31:56;12.75;;;8.82;;
38725;SDS011;24474;48.906;8.808;2023-02-11T00:34:25;12.93;;;9.15;;
38725;SDS011;24474;48.906;8.808;2023-02-11T00:36:51;13.25;;;8.43;;
38725;SDS011;24474;48.906;8.808;2023-02-11T00:39:16;13.75;;;7.97;;
38725;SDS011;24474;48.906;8.808;2023-02-11T00:41:42;12.65;;;8.90;;
38725;SDS011;24474;48.906;8.808;2023-02-11T00:44:07;14.48;;;8.40;;
38725;SDS011;24474;48.906;8.808;2023-02-11T00:46:33;14.85;;;9.48;;
38725;SDS011;24474;48.906;8.808;2023-02-11T00:48:59;18.02;;;10.18;;
38725;SDS011;24474;48.906;8.808;2023-02-11T00:51:25;13.85;;;9.27;;
38725;SDS011;24474;48.906;8.808;2023-02-11T00:53:52;15.60;;;9.60;;
38725;SDS011;24474;48.906;8.808;2023-02-11T00:56:18;15.13;;;9.20;;
38725;SDS011;24474;48.906;8.808;2023-02-11T00:58:44;15.02;;;9.77;;
38725;SDS011;24474;48.906;8.808;2023-02-11T01:01:11;16.85;;;10.30;;
38725;SDS011;24474;48.906;8.808;2023-02-11T01:03:37;16.50;;;10.73;;
38725;SDS011;24474;48.906;8.808;2023-02-11T01:06:04;16.40;;;10.23;;
38725;SDS011;24474;48.906;8.808;2023-02-11T01:08:31;17.90;;;10.85;;
38725;SDS011;24474;48.906;8.808;2023-02-11T01:10:57;15.52;;;10.40;;
38725;SDS011;24474;48.906;8.808;2023-02-11T01:13:25;16.10;;;9.82;;
38725;SDS011;24474;48.906;8.808;2023-02-11T01:15:51;14.77;;;9.98;;
38725;SDS011;24474;48.906;8.808;2023-02-11T01:18:18;14.80;;;9.52;;
38725;SDS011;24474;48.906;8.808;2023-02-11T01:20:44;15.18;;;9.50;;
38725;SDS011;24474;48.906;8.808;2023-02-11T01:23:10;15.25;;;9.52;;
38725;SDS011;24474;48.906;8.808;2023-02-11T01:25:35;14.75;;;8.98;;
38725;SDS011;24474;48.906;8.808;2023-02-11T01:28:01;13.73;;;8.98;;
38725;SDS011;24474;48.906;8.808;2023-02-11T01:30:27;14.00;;;9.27;;
38725;SDS011;24474;48.906;8.808;2023-02-11T01:32:52;12.98;;;8.02;;
38725;SDS011;24474;48.906;8.808;2023-02-11T01:35:18;16.73;;;9.23;;
38725;SDS011;24474;48.906;8.808;2023-02-11T01:37:44;15.00;;;9.77;;
38725;SDS011;24474;48.906;8.808;2023-02-11T01:40:11;15.77;;;9.93;;
38725;SDS011;24474;48.906;8.808;2023-02-11T01:42:39;17.45;;;10.07;;
38725;SDS011;24474;48.906;8.808;2023-02-11T01:48:09;18.08;;;10.40;;
38725;SDS011;24474;48.906;8.808;2023-02-11T01:50:37;17.75;;;10.95;;
38725;SDS011;24474;48.906;8.808;2023-02-11T01:53:06;16.65;;;11.05;;
38725;SDS011;24474;48.906;8.808;2023-02-11T01:55:52;19.13;;;11.23;;
38725;SDS011;24474;48.906;8.808;2023-02-11T01:58:39;18.48;;;11.52;;
38725;SDS011;24474;48.906;8.808;2023-02-11T02:01:07;17.80;;;11.80;;
38725;SDS011;24474;48.906;8.808;2023-02-11T02:03:37;18.38;;;11.63;;
38725;SDS011;24474;48.906;8.808;2023-02-11T02:06:28;19.42;;;12.10;;
38725;SDS011;24474;48.906;8.808;2023-02-11T02:09:16;17.48;;;11.25;;
38725;SDS011;24474;48.906;8.808;2023-02-11T02:11:47;17.30;;;11.90;;
38725;SDS011;24474;48.906;8.808;2023-02-11T02:14:14;18.50;;;12.43;;
38725;SDS011;24474;48.906;8.808;2023-02-11T02:16:40;18.48;;;11.60;;
38725;SDS011;24474;48.906;8.808;2023-02-11T02:30:15;19.70;;;11.27;;
38725;SDS011;24474;48.906;8.808;2023-02-11T02:33:19;19.77;;;11.15;;
38725;SDS011;24474;48.906;8.808;2023-02-11T02:36:27;18.93;;;11.10;;
38725;SDS011;24474;48.906;8.808;2023-02-11T02:38:49;18.60;;;11.18;;
38725;SDS011;24474;48.906;8.808;2023-02-11T02:41:26;15.25;;;10.18;;
38725;SDS011;24474;48.906;8.808;2023-02-11T02:43:55;15.65;;;10.25;;
38725;SDS011;24474;48.906;8.808;2023-02-11T02:46:23;16.98;;;10.40;;
38725;SDS011;24474;48.906;8.808;2023-02-11T02:48:50;16.73;;;9.88;;
38725;SDS011;24474;48.906;8.808;2023-02-11T02:51:34;16.75;;;10.65;;
38725;SDS011;24474;48.906;8.808;2023-02-11T03:07:54;16.60;;;10.48;;
38725;SDS011;24474;48.906;8.808;2023-02-11T03:10:45;16.58;;;11.05;;
38725;SDS011;24474;48.906;8.808;2023-02-11T03:13:15;15.45;;;9.95;;
38725;SDS011;24474;48.906;8.808;2023-02-11T03:15:44;17.38;;;10.32;;
38725;SDS011;24474;48.906;8.808;2023-02-11T03:18:16;17.30;;;11.48;;
38725;SDS011;24474;48.906;8.808;2023-02-11T03:20:46;13.32;;;8.35;;
38725;SDS011;24474;48.906;8.808;2023-02-11T03:25:49;11.23;;;7.18;;
38725;SDS011;24474;48.906;8.808;2023-02-11T03:28:30;11.00;;;7.25;;
38725;SDS011;24474;48.906;8.808;2023-02-11T03:33:40;10.23;;;6.40;;
38725;SDS011;24474;48.906;8.808;2023-02-11T03:36:31;11.18;;;7.13;;
38725;SDS011;24474;48.906;8.808;2023-02-11T03:39:02;11.02;;;6.97;;
38725;SDS011;24474;48.906;8.808;2023-02-11T03:41:30;8.90;;;6.18;;
38725;SDS011;24474;48.906;8.808;2023-02-11T03:43:57;10.32;;;6.78;;
38725;SDS011;24474;48.906;8.808;2023-02-11T03:46:31;10.63;;;6.00;;
38725;SDS011;24474;48.906;8.808;2023-02-11T03:49:02;8.15;;;5.78;;
38725;SDS011;24474;48.906;8.808;2023-02-11T03:51:31;9.93;;;6.18;;
38725;SDS011;24474;48.906;8.808;2023-02-11T03:53:58;12.95;;;8.30;;
38725;SDS011;24474;48.906;8.808;2023-02-11T03:56:27;10.68;;;7.10;;
38725;SDS011;24474;48.906;8.808;2023-02-11T03:58:56;8.68;;;5.30;;
38725;SDS011;24474;48.906;8.808;2023-02-11T04:01:22;8.52;;;5.10;;
38725;SDS011;24474;48.906;8.808;2023-02-11T04:03:47;10.73;;;7.07;;
38725;SDS011;24474;48.906;8.808;2023-02-11T04:06:13;8.65;;;5.40;;
38725;SDS011;24474;48.906;8.808;2023-02-11T04:08:39;8.52;;;5.68;;
38725;SDS011;24474;48.906;8.808;2023-02-11T04:11:04;9.13;;;5.72;;
38725;SDS011;24474;48.906;8.808;2023-02-11T04:13:30;8.75;;;5.40;;
38725;SDS011;24474;48.906;8.808;2023-02-11T04:15:56;8.40;;;4.85;;
38725;SDS011;24474;48.906;8.808;2023-02-11T04:18:21;7.85;;;5.10;;
38725;SDS011;24474;48.906;8.808;2023-02-11T04:20:47;11.23;;;7.32;;
38725;SDS011;24474;48.906;8.808;2023-02-11T04:23:14;13.73;;;8.77;;
38725;SDS011;24474;48.906;8.808;2023-02-11T04:25:39;13.20;;;8.27;;
38725;SDS011;24474;48.906;8.808;2023-02-11T04:28:06;13.25;;;8.77;;
38725;SDS011;24474;48.906;8.808;2023-02-11T04:30:31;12.55;;;7.70;;
38725;SDS011;24474;48.906;8.808;2023-02-11T04:32:57;11.75;;;7.40;;
38725;SDS011;24474;48.906;8.808;2023-02-11T04:35:23;10.32;;;6.47;;
38725;SDS011;24474;48.906;8.808;2023-02-11T04:37:49;11.02;;;6.60;;
38725;SDS011;24474;48.906;8.808;2023-02-11T04:40:14;9.65;;;6.20;;
38725;SDS011;24474;48.906;8.808;2023-02-11T04:42:40;8.80;;;6.43;;
38725;SDS011;24474;48.906;8.808;2023-02-11T04:45:05;9.00;;;5.45;;
38725;SDS011;24474;48.906;8.808;2023-02-11T04:47:32;7.88;;;5.15;;
38725;SDS011;24474;48.906;8.808;2023-02-11T04:49:58;7.93;;;5.00;;
38725;SDS011;24474;48.906;8.808;2023-02-11T04:52:24;8.07;;;5.20;;
38725;SDS011;24474;48.906;8.808;2023-02-11T04:54:49;8.25;;;4.97;;
38725;SDS011;24474;48.906;8.808;2023-02-11T04:57:15;7.65;;;5.13;;
38725;SDS011;24474;48.906;8.808;2023-02-11T04:59:40;7.20;;;4.85;;
38725;SDS011;24474;48.906;8.808;2023-02-11T05:02:06;7.82;;;5.47;;
38725;SDS011;24474;48.906;8.808;2023-02-11T05:04:32;7.32;;;5.07;;
38725;SDS011;24474;48.906;8.808;2023-02-11T05:06:57;8.38;;;5.32;;
38725;SDS011;24474;48.906;8.808;2023-02-11T05:09:23;9.65;;;6.18;;
38725;SDS011;24474;48.906;8.808;2023-02-11T05:11:49;8.77;;;5.45;;
38725;SDS011;24474;48.906;8.808;2023-02-11T05:14:14;8.85;;;5.70;;
38725;SDS011;24474;48.906;8.808;2023-02-11T05:16:40;11.65;;;7.10;;
38725;SDS011;24474;48.906;8.808;2023-02-11T05:19:05;10.27;;;5.93;;
38725;SDS011;24474;48.906;8.808;2023-02-11T05:21:31;8.68;;;5.10;;
38725;SDS011;24474;48.906;8.808;2023-02-11T05:23:57;6.88;;;4.90;;
38725;SDS011;24474;48.906;8.808;2023-02-11T05:26:23;7.80;;;5.00;;
38725;SDS011;24474;48.906;8.808;2023-02-11T05:28:49;7.97;;;4.72;;
38725;SDS011;24474;48.906;8.808;2023-02-11T05:31:15;9.25;;;5.00;;
38725;SDS011;24474;48.906;8.808;2023-02-11T05:33:41;7.53;;;4.90;;
38725;SDS011;24474;48.906;8.808;2023-02-11T05:36:10;7.53;;;4.53;;
38725;SDS011;24474;48.906;8.808;2023-02-11T05:38:37;8.02;;;4.80;;
38725;SDS011;24474;48.906;8.808;2023-02-11T05:41:05;7.07;;;4.85;;
38725;SDS011;24474;48.906;8.808;2023-02-11T05:43:31;6.82;;;4.45;;
38725;SDS011;24474;48.906;8.808;2023-02-11T05:45:58;9.02;;;4.93;;
38725;SDS011;24474;48.906;8.808;2023-02-11T05:48:28;7.10;;;4.90;;
38725;SDS011;24474;48.906;8.808;2023-02-11T05:50:54;8.02;;;4.97;;
38725;SDS011;24474;48.906;8.808;2023-02-11T05:53:20;9.50;;;5.22;;
38725;SDS011;24474;48.906;8.808;2023-02-11T05:55:46;9.70;;;6.45;;
38725;SDS011;24474;48.906;8.808;2023-02-11T05:58:14;10.40;;;7.30;;
38725;SDS011;24474;48.906;8.808;2023-02-11T06:00:40;9.35;;;7.00;;
38725;SDS011;24474;48.906;8.808;2023-02-11T06:03:06;10.13;;;6.95;;
38725;SDS011;24474;48.906;8.808;2023-02-11T06:05:32;10.52;;;6.15;;
38725;SDS011;24474;48.906;8.808;2023-02-11T06:07:58;10.07;;;5.95;;
38725;SDS011;24474;48.906;8.808;2023-02-11T06:10:24;10.00;;;6.50;;
38725;SDS011;24474;48.906;8.808;2023-02-11T06:12:53;10.70;;;6.85;;
38725;SDS011;24474;48.906;8.808;2023-02-11T06:15:19;11.65;;;6.38;;
38725;SDS011;24474;48.906;8.808;2023-02-11T06:17:44;12.18;;;7.45;;
38725;SDS011;24474;48.906;8.808;2023-02-11T06:20:17;11.85;;;7.53;;
38725;SDS011;24474;48.906;8.808;2023-02-11T06:22:43;12.63;;;8.73;;
38725;SDS011;24474;48.906;8.808;2023-02-11T06:25:08;16.83;;;12.27;;
38725;SDS011;24474;48.906;8.808;2023-02-11T06:27:35;15.20;;;9.73;;
38725;SDS011;24474;48.906;8.808;2023-02-11T06:30:02;9.95;;;7.15;;
38725;SDS011;24474;48.906;8.808;2023-02-11T06:32:28;9.70;;;7.25;;
38725;SDS011;24474;48.906;8.808;2023-02-11T06:34:54;10.43;;;7.10;;
38725;SDS011;24474;48.906;8.808;2023-02-11T06:37:20;12.60;;;7.00;;
38725;SDS011;24474;48.906;8.808;2023-02-11T06:39:45;9.77;;;6.93;;
38725;SDS011;24474;48.906;8.808;2023-02-11T06:42:11;9.23;;;6.80;;
38725;SDS011;24474;48.906;8.808;2023-02-11T06:44:40;9.05;;;6.53;;
38725;SDS011;24474;48.906;8.808;2023-02-11T06:47:06;10.55;;;6.65;;
38725;SDS011;24474;48.906;8.808;2023-02-11T06:49:32;9.65;;;6.28;;
38725;SDS011;24474;48.906;8.808;2023-02-11T06:51:57;11.38;;;6.20;;
38725;SDS011;24474;48.906;8.808;2023-02-11T06:54:26;8.48;;;5.78;;
38725;SDS011;24474;48.906;8.808;2023-02-11T06:56:51;9.38;;;5.60;;
38725;SDS011;24474;48.906;8.808;2023-02-11T06:59:17;9.20;;;6.10;;
38725;SDS011;24474;48.906;8.808;2023-02-11T07:01:44;9.40;;;6.18;;
38725;SDS011;24474;48.906;8.808;2023-02-11T07:04:11;9.80;;;6.40;;
38725;SDS011;24474;48.906;8.808;2023-02-11T07:06:38;11.85;;;7.22;;
38725;SDS011;24474;48.906;8.808;2023-02-11T07:09:04;10.23;;;6.78;;
38725;SDS011;24474;48.906;8.808;2023-02-11T07:11:30;8.05;;;5.75;;
38725;SDS011;24474;48.906;8.808;2023-02-11T07:13:59;10.23;;;6.68;;
38725;SDS011;24474;48.906;8.808;2023-02-11T07:16:26;10.95;;;6.90;;
38725;SDS011;24474;48.906;8.808;2023-02-11T07:18:52;9.15;;;6.07;;
38725;SDS011;24474;48.906;8.808;2023-02-11T07:21:18;10.25;;;6.32;;
38725;SDS011;24474;48.906;8.808;2023-02-11T07:24:07;8.27;;;5.70;;
38725;SDS011;24474;48.906;8.808;2023-02-11T07:26:34;8.23;;;5.63;;
38725;SDS011;24474;48.906;8.808;2023-02-11T07:29:00;8.77;;;6.10;;
38725;SDS011;24474;48.906;8.808;2023-02-11T07:31:28;8.10;;;5.53;;
38725;SDS011;24474;48.906;8.808;2023-02-11T07:33:55;9.60;;;5.78;;
38725;SDS011;24474;48.906;8.808;2023-02-11T07:36:23;10.20;;;6.10;;
38725;SDS011;24474;48.906;8.808;2023-02-11T07:38:49;9.02;;;5.80;;
38725;SDS011;24474;48.906;8.808;2023-02-11T07:41:16;8.80;;;5.50;;
38725;SDS011;24474;48.906;8.808;2023-02-11T07:43:48;9.07;;;6.13;;
38725;SDS011;24474;48.906;8.808;2023-02-11T07:46:16;8.75;;;5.47;;
38725;SDS011;24474;48.906;8.808;2023-02-11T07:48:45;9.52;;;5.18;;
38725;SDS011;24474;48.906;8.808;2023-02-11T07:51:15;11.52;;;7.95;;
38725;SDS011;24474;48.906;8.808;2023-02-11T07:53:42;15.77;;;10.55;;
38725;SDS011;24474;48.906;8.808;2023-02-11T07:56:09;14.52;;;10.48;;
38725;SDS011;24474;48.906;8.808;2023-02-11T07:58:36;10.23;;;6.13;;
38725;SDS011;24474;48.906;8.808;2023-02-11T08:01:02;11.70;;;6.18;;
38725;SDS011;24474;48.906;8.808;2023-02-11T08:03:28;10.02;;;6.07;;
38725;SDS011;24474;48.906;8.808;2023-02-11T08:06:01;9.18;;;5.68;;
38725;SDS011;24474;48.906;8.808;2023-02-11T08:08:32;10.15;;;6.35;;
38725;SDS011;24474;48.906;8.808;2023-02-11T08:11:17;9.57;;;5.72;;
38725;SDS011;24474;48.906;8.808;2023-02-11T08:13:54;11.38;;;6.18;;
38725;SDS011;24474;48.906;8.808;2023-02-11T08:16:28;11.88;;;7.53;;
38725;SDS011;24474;48.906;8.808;2023-02-11T08:18:58;12.07;;;8.10;;
38725;SDS011;24474;48.906;8.808;2023-02-11T08:21:25;11.27;;;7.50;;
38725;SDS011;24474;48.906;8.808;2023-02-11T08:23:56;9.88;;;6.03;;
38725;SDS011;24474;48.906;8.808;2023-02-11T08:26:23;8.77;;;5.72;;
38725;SDS011;24474;48.906;8.808;2023-02-11T08:28:51;8.63;;;5.60;;
38725;SDS011;24474;48.906;8.808;2023-02-11T08:31:19;7.63;;;5.22;;
38725;SDS011;24474;48.906;8.808;2023-02-11T08:33:46;6.28;;;4.50;;
38725;SDS011;24474;48.906;8.808;2023-02-11T08:36:18;9.90;;;4.90;;
38725;SDS011;24474;48.906;8.808;2023-02-11T08:38:58;8.45;;;4.60;;
38725;SDS011;24474;48.906;8.808;2023-02-11T08:41:28;6.20;;;3.85;;
38725;SDS011;24474;48.906;8.808;2023-02-11T08:43:57;6.93;;;3.92;;
38725;SDS011;24474;48.906;8.808;2023-02-11T08:46:25;6.45;;;3.90;;
38725;SDS011;24474;48.906;8.808;2023-02-11T08:48:51;6.20;;;3.85;;
38725;SDS011;24474;48.906;8.808;2023-02-11T08:51:20;7.13;;;3.80;;
38725;SDS011;24474;48.906;8.808;2023-02-11T08:53:49;5.53;;;3.45;;
38725;SDS011;24474;48.906;8.808;2023-02-11T08:56:17;7.25;;;3.67;;
38725;SDS011;24474;48.906;8.808;2023-02-11T08:58:45;5.97;;;3.50;;
38725;SDS011;24474;48.906;8.808;2023-02-11T09:01:18;6.50;;;3.97;;
38725;SDS011;24474;48.906;8.808;2023-02-11T09:04:00;6.32;;;4.03;;
38725;SDS011;24474;48.906;8.808;2023-02-11T09:06:26;5.18;;;3.38;;
38725;SDS011;24474;48.906;8.808;2023-02-11T09:08:53;8.23;;;3.97;;
38725;SDS011;24474;48.906;8.808;2023-02-11T09:11:23;6.43;;;4.03;;
38725;SDS011;24474;48.906;8.808;2023-02-11T09:13:57;5.35;;;3.72;;
38725;SDS011;24474;48.906;8.808;2023-02-11T09:16:25;6.68;;;3.13;;
38725;SDS011;24474;48.906;8.808;2023-02-11T09:18:57;6.15;;;3.53;;
38725;SDS011;24474;48.906;8.808;2023-02-11T09:21:24;6.80;;;3.53;;
38725;SDS011;24474;48.906;8.808;2023-02-11T09:23:50;7.30;;;3.95;;
38725;SDS011;24474;48.906;8.808;2023-02-11T09:26:17;6.93;;;4.20;;
38725;SDS011;24474;48.906;8.808;2023-02-11T09:28:49;9.70;;;4.43;;
38725;SDS011;24474;48.906;8.808;2023-02-11T09:31:16;7.65;;;4.95;;
38725;SDS011;24474;48.906;8.808;2023-02-11T09:33:45;8.52;;;5.03;;
38725;SDS011;24474;48.906;8.808;2023-02-11T09:36:17;8.82;;;5.40;;
38725;SDS011;24474;48.906;8.808;2023-02-11T09:38:50;10.85;;;6.13;;
38725;SDS011;24474;48.906;8.808;2023-02-11T09:41:21;7.53;;;5.32;;
38725;SDS011;24474;48.906;8.808;2023-02-11T09:44:00;9.45;;;6.25;;
38725;SDS011;24474;48.906;8.808;2023-02-11T09:46:33;12.13;;;6.97;;
38725;SDS011;24474;48.906;8.808;2023-02-11T09:49:01;13.25;;;7.60;;
38725;SDS011;24474;48.906;8.808;2023-02-11T09:51:35;12.55;;;7.32;;
38725;SDS011;24474;48.906;8.808;2023-02-11T09:54:15;11.68;;;7.53;;
38725;SDS011;24474;48.906;8.808;2023-02-11T09:56:51;11.75;;;8.45;;
38725;SDS011;24474;48.906;8.808;2023-02-11T09:59:16;13.38;;;7.70;;
38725;SDS011;24474;48.906;8.808;2023-02-11T10:01:49;11.60;;;7.78;;
38725;SDS011;24474;48.906;8.808;2023-02-11T10:04:24;11.45;;;7.93;;
38725;SDS011;24474;48.906;8.808;2023-02-11T10:09:59;11.40;;;7.78;;
38725;SDS011;24474;48.906;8.808;2023-02-11T10:15:21;12.50;;;7.65;;
38725;SDS011;24474;48.906;8.808;2023-02-11T10:20:36;14.95;;;9.30;;
38725;SDS011;24474;48.906;8.808;2023-02-11T10:25:40;13.25;;;8.90;;
38725;SDS011;24474;48.906;8.808;2023-02-11T10:28:10;16.77;;;9.57;;
38725;SDS011;24474;48.906;8.808;2023-02-11T10:35:52;12.10;;;9.10;;
38725;SDS011;24474;48.906;8.808;2023-02-11T10:38:17;14.70;;;9.00;;
38725;SDS011;24474;48.906;8.808;2023-02-11T10:40:44;13.15;;;8.48;;
38725;SDS011;24474;48.906;8.808;2023-02-11T10:43:11;14.00;;;8.40;;
38725;SDS011;24474;48.906;8.808;2023-02-11T10:45:49;13.52;;;8.90;;
38725;SDS011;24474;48.906;8.808;2023-02-11T10:48:39;15.32;;;8.93;;
38725;SDS011;24474;48.906;8.808;2023-02-11T10:53:37;14.50;;;8.57;;
38725;SDS011;24474;48.906;8.808;2023-02-11T10:56:03;12.85;;;8.68;;
38725;SDS011;24474;48.906;8.808;2023-02-11T10:58:33;14.32;;;8.73;;
38725;SDS011;24474;48.906;8.808;2023-02-11T11:01:05;13.38;;;8.23;;
38725;SDS011;24474;48.906;8.808;2023-02-11T11:03:44;12.88;;;7.57;;
38725;SDS011;24474;48.906;8.808;2023-02-11T11:06:15;12.20;;;8.55;;
38725;SDS011;24474;48.906;8.808;2023-02-11T11:08:54;13.85;;;9.18;;
38725;SDS011;24474;48.906;8.808;2023-02-11T11:11:23;12.27;;;8.38;;
38725;SDS011;24474;48.906;8.808;2023-02-11T11:18:45;10.50;;;8.07;;
38725;SDS011;24474;48.906;8.808;2023-02-11T11:23:49;14.13;;;9.48;;
38725;SDS011;24474;48.906;8.808;2023-02-11T11:26:17;14.98;;;9.73;;
38725;SDS011;24474;48.906;8.808;2023-02-11T11:28:50;14.52;;;8.98;;
38725;SDS011;24474;48.906;8.808;2023-02-11T11:33:56;15.77;;;9.83;;
38725;SDS011;24474;48.906;8.808;2023-02-11T11:36:33;15.60;;;9.88;;
38725;SDS011;24474;48.906;8.808;2023-02-11T11:39:14;16.20;;;10.48;;
38725;SDS011;24474;48.906;8.808;2023-02-11T11:41:49;14.90;;;10.05;;
38725;SDS011;24474;48.906;8.808;2023-02-11T11:44:32;19.30;;;11.10;;
38725;SDS011;24474;48.906;8.808;2023-02-11T11:47:10;22.17;;;11.07;;
38725;SDS011;24474;48.906;8.808;2023-02-11T11:49:59;16.80;;;11.25;;
38725;SDS011;24474;48.906;8.808;2023-02-11T11:52:58;18.95;;;11.95;;
38725;SDS011;24474;48.906;8.808;2023-02-11T11:55:41;20.13;;;12.65;;
38725;SDS011;24474;48.906;8.808;2023-02-11T11:58:12;20.45;;;12.65;;
38725;SDS011;24474;48.906;8.808;2023-02-11T12:06:42;22.55;;;13.80;;
38725;SDS011;24474;48.906;8.808;2023-02-11T12:20:22;20.80;;;14.50;;
38725;SDS011;24474;48.906;8.808;2023-02-11T12:23:20;22.17;;;14.73;;
38725;SDS011;24474;48.906;8.808;2023-02-11T12:26:15;20.77;;;14.32;;
38725;SDS011;24474;48.906;8.808;2023-02-11T12:37:21;21.65;;;14.60;;
38725;SDS011;24474;48.906;8.808;2023-02-11T12:39:55;20.10;;;13.20;;
38725;SDS011;24474;48.906;8.808;2023-02-11T12:51:47;19.55;;;13.63;;
38725;SDS011;24474;48.906;8.808;2023-02-11T12:55:10;20.15;;;14.13;;
38725;SDS011;24474;48.906;8.808;2023-02-11T12:57:44;18.83;;;13.70;;
38725;SDS011;24474;48.906;8.808;2023-02-11T13:00:20;20.50;;;13.07;;
38725;SDS011;24474;48.906;8.808;2023-02-11T13:03:29;18.55;;;13.15;;
38725;SDS011;24474;48.906;8.808;2023-02-11T13:06:10;18.83;;;13.82;;
38725;SDS011;24474;48.906;8.808;2023-02-11T13:08:53;16.30;;;12.48;;
38725;SDS011;24474;48.906;8.808;2023-02-11T13:11:33;21.85;;;14.75;;
38725;SDS011;24474;48.906;8.808;2023-02-11T13:14:12;18.02;;;13.80;;
38725;SDS011;24474;48.906;8.808;2023-02-11T13:17:02;20.25;;;13.27;;
38725;SDS011;24474;48.906;8.808;2023-02-11T13:25:09;17.20;;;13.60;;
38725;SDS011;24474;48.906;8.808;2023-02-11T13:31:01;19.40;;;13.32;;
38725;SDS011;24474;48.906;8.808;2023-02-11T13:36:11;18.40;;;12.40;;
38725;SDS011;24474;48.906;8.808;2023-02-11T13:38:51;19.60;;;14.52;;
38725;SDS011;24474;48.906;8.808;2023-02-11T13:41:32;19.35;;;13.82;;
38725;SDS011;24474;48.906;8.808;2023-02-11T13:46:54;21.02;;;13.93;;
38725;SDS011;24474;48.906;8.808;2023-02-11T13:49:38;23.30;;;15.45;;
38725;SDS011;24474;48.906;8.808;2023-02-11T13:52:33;19.25;;;13.25;;
38725;SDS011;24474;48.906;8.808;2023-02-11T13:55:23;16.15;;;12.65;;
38725;SDS011;24474;48.906;8.808;2023-02-11T14:00:43;16.85;;;13.13;;
38725;SDS011;24474;48.906;8.808;2023-02-11T14:03:22;17.13;;;12.93;;
38725;SDS011;24474;48.906;8.808;2023-02-11T14:06:13;16.60;;;12.95;;
38725;SDS011;24474;48.906;8.808;2023-02-11T14:15:17;18.33;;;12.85;;
38725;SDS011;24474;48.906;8.808;2023-02-11T14:17:47;17.75;;;13.05;;
38725;SDS011;24474;48.906;8.808;2023-02-11T14:20:47;16.65;;;13.00;;
38725;SDS011;24474;48.906;8.808;2023-02-11T14:23:17;19.40;;;14.00;;
38725;SDS011;24474;48.906;8.808;2023-02-11T14:25:55;17.42;;;12.65;;
38725;SDS011;24474;48.906;8.808;2023-02-11T14:28:28;20.35;;;13.40;;
38725;SDS011;24474;48.906;8.808;2023-02-11T14:31:06;17.90;;;12.98;;
38725;SDS011;24474;48.906;8.808;2023-02-11T14:40:27;17.48;;;12.68;;
38725;SDS011;24474;48.906;8.808;2023-02-11T14:42:44;19.52;;;15.32;;
38725;SDS011;24474;48.906;8.808;2023-02-11T14:45:15;16.67;;;12.90;;
38725;SDS011;24474;48.906;8.808;2023-02-11T14:47:50;18.08;;;13.85;;
38725;SDS011;24474;48.906;8.808;2023-02-11T14:51:03;16.10;;;12.95;;
38725;SDS011;24474;48.906;8.808;2023-02-11T14:54:03;17.63;;;12.90;;
38725;SDS011;24474;48.906;8.808;2023-02-11T15:02:34;19.48;;;13.95;;
38725;SDS011;24474;48.906;8.808;2023-02-11T15:05:15;16.67;;;13.40;;
38725;SDS011;24474;48.906;8.808;2023-02-11T15:07:46;18.40;;;13.27;;
38725;SDS011;24474;48.906;8.808;2023-02-11T15:10:36;19.55;;;13.75;;
38725;SDS011;24474;48.906;8.808;2023-02-11T15:13:08;18.90;;;14.02;;
38725;SDS011;24474;48.906;8.808;2023-02-11T15:15:44;20.08;;;13.50;;
38725;SDS011;24474;48.906;8.808;2023-02-11T15:18:24;20.60;;;13.68;;
38725;SDS011;24474;48.906;8.808;2023-02-11T15:20:58;18.83;;;13.85;;
38725;SDS011;24474;48.906;8.808;2023-02-11T15:23:26;18.02;;;14.65;;
38725;SDS011;24474;48.906;8.808;2023-02-11T15:25:53;18.10;;;13.75;;
38725;SDS011;24474;48.906;8.808;2023-02-11T15:28:30;19.58;;;14.20;;
38725;SDS011;24474;48.906;8.808;2023-02-11T15:31:04;21.55;;;14.38;;
38725;SDS011;24474;48.906;8.808;2023-02-11T15:33:44;23.35;;;14.90;;
38725;SDS011;24474;48.906;8.808;2023-02-11T15:36:12;19.85;;;15.05;;
38725;SDS011;24474;48.906;8.808;2023-02-11T15:38:41;18.35;;;13.30;;
38725;SDS011;24474;48.906;8.808;2023-02-11T15:41:26;17.75;;;13.65;;
38725;SDS011;24474;48.906;8.808;2023-02-11T15:44:02;21.95;;;14.88;;
38725;SDS011;24474;48.906;8.808;2023-02-11T15:46:38;20.33;;;15.32;;
38725;SDS011;24474;48.906;8.808;2023-02-11T15:49:12;18.52;;;14.48;;
38725;SDS011;24474;48.906;8.808;2023-02-11T15:51:44;18.30;;;14.93;;
38725;SDS011;24474;48.906;8.808;2023-02-11T15:54:18;19.42;;;14.70;;
38725;SDS011;24474;48.906;8.808;2023-02-11T15:56:49;20.55;;;15.65;;
38725;SDS011;24474;48.906;8.808;2023-02-11T15:59:26;19.67;;;14.70;;
38725;SDS011;24474;48.906;8.808;2023-02-11T16:01:56;21.35;;;15.30;;
38725;SDS011;24474;48.906;8.808;2023-02-11T16:05:06;19.15;;;14.73;;
38725;SDS011;24474;48.906;8.808;2023-02-11T16:07:46;21.38;;;15.25;;
38725;SDS011;24474;48.906;8.808;2023-02-11T16:10:16;20.98;;;14.77;;
38725;SDS011;24474;48.906;8.808;2023-02-11T16:15:41;24.45;;;15.15;;
38725;SDS011;24474;48.906;8.808;2023-02-11T16:18:28;21.73;;;14.65;;
38725;SDS011;24474;48.906;8.808;2023-02-11T16:20:57;18.80;;;14.70;;
38725;SDS011;24474;48.906;8.808;2023-02-11T16:23:26;20.40;;;15.32;;
38725;SDS011;24474;48.906;8.808;2023-02-11T16:26:04;19.13;;;14.18;;
38725;SDS011;24474;48.906;8.808;2023-02-11T16:28:35;22.33;;;15.52;;
38725;SDS011;24474;48.906;8.808;2023-02-11T16:31:04;21.65;;;15.60;;
38725;SDS011;24474;48.906;8.808;2023-02-11T16:33:30;19.88;;;15.85;;
38725;SDS011;24474;48.906;8.808;2023-02-11T16:35:57;22.55;;;16.48;;
38725;SDS011;24474;48.906;8.808;2023-02-11T16:38:28;19.63;;;15.45;;
38725;SDS011;24474;48.906;8.808;2023-02-11T16:40:55;19.95;;;15.82;;
38725;SDS011;24474;48.906;8.808;2023-02-11T16:43:22;20.58;;;15.45;;
38725;SDS011;24474;48.906;8.808;2023-02-11T16:45:49;20.85;;;16.02;;
38725;SDS011;24474;48.906;8.808;2023-02-11T16:48:17;21.05;;;15.20;;
38725;SDS011;24474;48.906;8.808;2023-02-11T16:50:45;18.58;;;14.38;;
38725;SDS011;24474;48.906;8.808;2023-02-11T16:53:15;20.70;;;15.77;;
38725;SDS011;24474;48.906;8.808;2023-02-11T16:55:52;20.08;;;14.40;;
38725;SDS011;24474;48.906;8.808;2023-02-11T16:58:18;20.48;;;15.18;;
38725;SDS011;24474;48.906;8.808;2023-02-11T17:00:47;20.73;;;15.77;;
38725;SDS011;24474;48.906;8.808;2023-02-11T17:03:16;19.35;;;14.95;;
38725;SDS011;24474;48.906;8.808;2023-02-11T17:05:47;20.85;;;16.80;;
38725;SDS011;24474;48.906;8.808;2023-02-11T17:08:15;21.13;;;16.15;;
38725;SDS011;24474;48.906;8.808;2023-02-11T17:10:42;21.23;;;16.30;;
38725;SDS011;24474;48.906;8.808;2023-02-11T17:13:09;22.30;;;15.60;;